TimeEDT,TemperatureF,Dew PointF,Humidity,Sea Level PressureIn,VisibilityMPH,Wind Direction,Wind SpeedMPH,Gust SpeedMPH,PrecipitationIn,Events,Conditions,WindDirDegrees,DateUTC
12:53 AM,75.0,60.1,60,29.82,10.0,Calm,Calm,-,N/A,,Clear,0,2013-06-12 04:53:00
1:53 AM,73.0,60.1,64,29.82,10.0,Calm,Calm,-,N/A,,Clear,0,2013-06-12 05:53:00
2:53 AM,71.1,61.0,70,29.82,10.0,Calm,Calm,-,N/A,,Clear,0,2013-06-12 06:53:00
3:53 AM,71.1,61.0,70,29.82,9.0,Calm,Calm,-,N/A,,Clear,0,2013-06-12 07:53:00
4:53 AM,70.0,61.0,73,29.82,9.0,Calm,Calm,-,N/A,,Partly Cloudy,0,2013-06-12 08:53:00
5:53 AM,73.0,62.1,68,29.82,10.0,Calm,Calm,-,0.00,,Mostly Cloudy,0,2013-06-12 09:53:00
6:53 AM,73.0,63.0,71,29.83,9.0,Calm,Calm,-,N/A,,Mostly Cloudy,0,2013-06-12 10:53:00
7:53 AM,73.9,64.0,71,29.83,10.0,Calm,Calm,-,N/A,,Mostly Cloudy,0,2013-06-12 11:53:00
8:53 AM,78.1,64.0,62,29.83,10.0,Variable,3.5,-,N/A,,Partly Cloudy,0,2013-06-12 12:53:00
9:53 AM,78.1,64.9,64,29.84,9.0,Variable,4.6,-,N/A,,Partly Cloudy,0,2013-06-12 13:53:00
10:53 AM,80.1,64.9,60,29.84,8.0,Variable,4.6,-,N/A,,Scattered Clouds,0,2013-06-12 14:53:00
11:53 AM,81.0,64.0,56,29.84,6.0,Variable,4.6,-,N/A,,Haze,0,2013-06-12 15:53:00
12:53 PM,84.0,64.9,53,29.84,7.0,Variable,6.9,-,N/A,,Partly Cloudy,0,2013-06-12 16:53:00
1:53 PM,84.0,64.9,53,29.83,7.0,Variable,4.6,-,N/A,,Partly Cloudy,0,2013-06-12 17:53:00
2:53 PM,86.0,64.9,49,29.82,7.0,Variable,3.5,-,N/A,,Partly Cloudy,0,2013-06-12 18:53:00
3:53 PM,86.0,64.0,48,29.81,7.0,WSW,3.5,-,N/A,,Clear,240,2013-06-12 19:53:00
4:53 PM,87.1,64.9,48,29.78,7.0,Calm,Calm,-,N/A,,Clear,0,2013-06-12 20:53:00
5:53 PM,87.1,63.0,44,29.76,8.0,Calm,Calm,-,N/A,,Clear,0,2013-06-12 21:53:00
6:53 PM,84.0,68.0,58,29.80,7.0,Calm,Calm,-,N/A,,Clear,0,2013-06-12 22:53:00
7:53 PM,82.0,66.9,60,29.80,6.0,Calm,Calm,-,N/A,,Haze,0,2013-06-12 23:53:00
8:53 PM,78.1,68.0,71,29.80,7.0,Calm,Calm,-,N/A,,Clear,0,2013-06-13 00:53:00
9:53 PM,75.9,66.9,74,29.82,6.0,Calm,Calm,-,N/A,,Haze,0,2013-06-13 01:53:00
10:53 PM,75.0,66.9,76,29.81,6.0,Calm,Calm,-,N/A,,Haze,0,2013-06-13 02:53:00
11:53 PM,73.9,66.9,79,29.80,6.0,Calm,Calm,-,N/A,,Haze,0,2013-06-13 03:53:00